sensor_id;sensor_type;location;lat;lon;timestamp;P1;durP1;ratioP1;P2;durP2;ratioP2
5945;SDS011;2998;48.206;16.394;2022-10-26T00:01:26;4.00;;;2.90;;
5945;SDS011;2998;48.206;16.394;2022-10-26T00:03:55;2.73;;;2.60;;
5945;SDS011;2998;48.206;16.394;2022-10-26T00:06:23;2.70;;;2.60;;
5945;SDS011;2998;48.206;16.394;2022-10-26T00:08:53;2.60;;;2.40;;
5945;SDS011;2998;48.206;16.394;2022-10-26T00:11:23;2.47;;;2.33;;
5945;SDS011;2998;48.206;16.394;2022-10-26T00:13:51;4.30;;;2.97;;
5945;SDS011;2998;48.206;16.394;2022-10-26T00:16:20;3.73;;;3.00;;
5945;SDS011;2998;48.206;16.394;2022-10-26T00:18:49;3.67;;;2.40;;
5945;SDS011;2998;48.206;16.394;2022-10-26T00:21:17;10.93;;;2.40;;
5945;SDS011;2998;48.206;16.394;2022-10-26T00:23:46;13.90;;;2.77;;
5945;SDS011;2998;48.206;16.394;2022-10-26T00:26:14;5.53;;;2.67;;
5945;SDS011;2998;48.206;16.394;2022-10-26T00:28:43;6.70;;;3.67;;
5945;SDS011;2998;48.206;16.394;2022-10-26T00:31:11;4.90;;;3.27;;
5945;SDS011;2998;48.206;16.394;2022-10-26T00:33:41;6.20;;;2.90;;
5945;SDS011;2998;48.206;16.394;2022-10-26T00:36:09;3.27;;;3.10;;
5945;SDS011;2998;48.206;16.394;2022-10-26T00:38:39;2.90;;;2.70;;
5945;SDS011;2998;48.206;16.394;2022-10-26T00:41:12;2.87;;;2.50;;
5945;SDS011;2998;48.206;16.394;2022-10-26T00:43:42;2.50;;;2.30;;
5945;SDS011;2998;48.206;16.394;2022-10-26T00:46:11;5.33;;;2.83;;
5945;SDS011;2998;48.206;16.394;2022-10-26T00:48:41;2.60;;;2.50;;
5945;SDS011;2998;48.206;16.394;2022-10-26T00:51:12;6.07;;;3.20;;
5945;SDS011;2998;48.206;16.394;2022-10-26T00:53:43;6.93;;;3.10;;
5945;SDS011;2998;48.206;16.394;2022-10-26T00:56:11;2.60;;;2.37;;
5945;SDS011;2998;48.206;16.394;2022-10-26T00:58:39;3.80;;;2.43;;
5945;SDS011;2998;48.206;16.394;2022-10-26T01:01:09;5.83;;;2.77;;
5945;SDS011;2998;48.206;16.394;2022-10-26T01:03:37;2.20;;;2.10;;
5945;SDS011;2998;48.206;16.394;2022-10-26T01:06:05;2.20;;;2.10;;
5945;SDS011;2998;48.206;16.394;2022-10-26T01:08:34;2.30;;;2.20;;
5945;SDS011;2998;48.206;16.394;2022-10-26T01:11:03;2.87;;;2.60;;
5945;SDS011;2998;48.206;16.394;2022-10-26T01:13:32;2.80;;;2.20;;
5945;SDS011;2998;48.206;16.394;2022-10-26T01:16:03;2.43;;;2.33;;
5945;SDS011;2998;48.206;16.394;2022-10-26T01:18:39;2.40;;;2.30;;
5945;SDS011;2998;48.206;16.394;2022-10-26T01:21:31;2.40;;;2.23;;
5945;SDS011;2998;48.206;16.394;2022-10-26T01:27:23;8.93;;;2.77;;
5945;SDS011;2998;48.206;16.394;2022-10-26T01:35:51;2.50;;;2.30;;
5945;SDS011;2998;48.206;16.394;2022-10-26T01:38:23;5.40;;;2.90;;
5945;SDS011;2998;48.206;16.394;2022-10-26T01:40:58;2.80;;;2.60;;
5945;SDS011;2998;48.206;16.394;2022-10-26T01:43:29;2.20;;;2.10;;
5945;SDS011;2998;48.206;16.394;2022-10-26T01:46:00;5.53;;;2.87;;
5945;SDS011;2998;48.206;16.394;2022-10-26T01:48:31;2.23;;;2.13;;
5945;SDS011;2998;48.206;16.394;2022-10-26T01:50:59;2.80;;;2.37;;
5945;SDS011;2998;48.206;16.394;2022-10-26T01:53:27;2.40;;;2.10;;
5945;SDS011;2998;48.206;16.394;2022-10-26T01:55:55;1.73;;;1.63;;
5945;SDS011;2998;48.206;16.394;2022-10-26T02:01:33;2.80;;;2.70;;
5945;SDS011;2998;48.206;16.394;2022-10-26T02:04:13;2.93;;;2.73;;
5945;SDS011;2998;48.206;16.394;2022-10-26T02:06:48;4.60;;;2.57;;
5945;SDS011;2998;48.206;16.394;2022-10-26T02:09:22;3.83;;;2.50;;
5945;SDS011;2998;48.206;16.394;2022-10-26T02:11:54;6.87;;;2.60;;
5945;SDS011;2998;48.206;16.394;2022-10-26T02:14:24;2.47;;;2.27;;
5945;SDS011;2998;48.206;16.394;2022-10-26T02:17:01;2.43;;;2.23;;
5945;SDS011;2998;48.206;16.394;2022-10-26T02:19:35;3.93;;;3.23;;
5945;SDS011;2998;48.206;16.394;2022-10-26T02:22:08;3.37;;;2.63;;
5945;SDS011;2998;48.206;16.394;2022-10-26T02:24:41;2.93;;;2.73;;
5945;SDS011;2998;48.206;16.394;2022-10-26T02:27:12;3.50;;;3.30;;
5945;SDS011;2998;48.206;16.394;2022-10-26T02:29:42;3.27;;;2.87;;
5945;SDS011;2998;48.206;16.394;2022-10-26T02:32:11;3.33;;;3.03;;
5945;SDS011;2998;48.206;16.394;2022-10-26T02:34:41;3.73;;;3.43;;
5945;SDS011;2998;48.206;16.394;2022-10-26T02:37:11;6.80;;;4.20;;
5945;SDS011;2998;48.206;16.394;2022-10-26T02:39:40;3.40;;;3.27;;
5945;SDS011;2998;48.206;16.394;2022-10-26T02:42:09;4.50;;;3.37;;
5945;SDS011;2998;48.206;16.394;2022-10-26T02:44:39;5.40;;;4.53;;
5945;SDS011;2998;48.206;16.394;2022-10-26T02:47:09;5.40;;;4.90;;
5945;SDS011;2998;48.206;16.394;2022-10-26T02:49:37;5.20;;;4.70;;
5945;SDS011;2998;48.206;16.394;2022-10-26T02:52:08;4.47;;;3.57;;
5945;SDS011;2998;48.206;16.394;2022-10-26T02:54:41;3.57;;;3.37;;
5945;SDS011;2998;48.206;16.394;2022-10-26T02:57:15;4.60;;;2.93;;
5945;SDS011;2998;48.206;16.394;2022-10-26T02:59:45;4.70;;;3.60;;
5945;SDS011;2998;48.206;16.394;2022-10-26T03:02:14;8.60;;;3.60;;
5945;SDS011;2998;48.206;16.394;2022-10-26T03:04:43;4.70;;;4.30;;
5945;SDS011;2998;48.206;16.394;2022-10-26T03:07:12;5.80;;;3.57;;
5945;SDS011;2998;48.206;16.394;2022-10-26T03:09:47;6.23;;;4.47;;
5945;SDS011;2998;48.206;16.394;2022-10-26T03:12:15;19.40;;;8.53;;
5945;SDS011;2998;48.206;16.394;2022-10-26T03:14:43;10.87;;;6.60;;
5945;SDS011;2998;48.206;16.394;2022-10-26T03:17:11;4.80;;;4.00;;
5945;SDS011;2998;48.206;16.394;2022-10-26T03:19:38;14.27;;;8.90;;
5945;SDS011;2998;48.206;16.394;2022-10-26T03:22:06;12.07;;;7.70;;
5945;SDS011;2998;48.206;16.394;2022-10-26T03:24:36;20.07;;;9.60;;
5945;SDS011;2998;48.206;16.394;2022-10-26T03:27:04;23.07;;;10.93;;
5945;SDS011;2998;48.206;16.394;2022-10-26T03:29:31;21.83;;;10.63;;
5945;SDS011;2998;48.206;16.394;2022-10-26T03:31:59;13.70;;;8.90;;
5945;SDS011;2998;48.206;16.394;2022-10-26T03:34:27;13.30;;;8.60;;
5945;SDS011;2998;48.206;16.394;2022-10-26T03:36:55;13.23;;;8.80;;
5945;SDS011;2998;48.206;16.394;2022-10-26T03:39:23;15.33;;;8.57;;
5945;SDS011;2998;48.206;16.394;2022-10-26T03:41:53;10.73;;;8.30;;
5945;SDS011;2998;48.206;16.394;2022-10-26T03:44:21;10.13;;;6.47;;
5945;SDS011;2998;48.206;16.394;2022-10-26T03:46:49;9.30;;;6.60;;
5945;SDS011;2998;48.206;16.394;2022-10-26T03:49:17;13.13;;;5.00;;
5945;SDS011;2998;48.206;16.394;2022-10-26T03:51:45;8.00;;;5.77;;
5945;SDS011;2998;48.206;16.394;2022-10-26T03:54:13;9.30;;;6.23;;
5945;SDS011;2998;48.206;16.394;2022-10-26T03:56:41;14.30;;;7.63;;
5945;SDS011;2998;48.206;16.394;2022-10-26T03:59:10;7.77;;;6.67;;
5945;SDS011;2998;48.206;16.394;2022-10-26T04:01:38;11.93;;;9.00;;
5945;SDS011;2998;48.206;16.394;2022-10-26T04:04:06;23.87;;;10.83;;
5945;SDS011;2998;48.206;16.394;2022-10-26T04:06:34;14.70;;;8.67;;
5945;SDS011;2998;48.206;16.394;2022-10-26T04:09:02;7.27;;;6.17;;
5945;SDS011;2998;48.206;16.394;2022-10-26T04:11:30;5.67;;;5.07;;
5945;SDS011;2998;48.206;16.394;2022-10-26T04:13:58;6.23;;;5.37;;
5945;SDS011;2998;48.206;16.394;2022-10-26T04:16:27;4.37;;;4.07;;
5945;SDS011;2998;48.206;16.394;2022-10-26T04:18:58;5.70;;;5.17;;
5945;SDS011;2998;48.206;16.394;2022-10-26T04:21:27;6.23;;;5.30;;
5945;SDS011;2998;48.206;16.394;2022-10-26T04:23:54;6.87;;;4.90;;
5945;SDS011;2998;48.206;16.394;2022-10-26T04:26:22;8.80;;;6.40;;
5945;SDS011;2998;48.206;16.394;2022-10-26T04:28:50;6.17;;;5.57;;
5945;SDS011;2998;48.206;16.394;2022-10-26T04:31:19;8.27;;;5.43;;
5945;SDS011;2998;48.206;16.394;2022-10-26T04:33:48;6.03;;;5.53;;
5945;SDS011;2998;48.206;16.394;2022-10-26T04:36:16;5.77;;;5.37;;
5945;SDS011;2998;48.206;16.394;2022-10-26T04:38:44;9.50;;;6.00;;
5945;SDS011;2998;48.206;16.394;2022-10-26T04:41:12;4.90;;;4.40;;
5945;SDS011;2998;48.206;16.394;2022-10-26T04:43:40;4.97;;;4.20;;
5945;SDS011;2998;48.206;16.394;2022-10-26T04:46:07;9.13;;;4.90;;
5945;SDS011;2998;48.206;16.394;2022-10-26T04:48:42;5.03;;;4.43;;
5945;SDS011;2998;48.206;16.394;2022-10-26T04:51:11;4.50;;;4.10;;
5945;SDS011;2998;48.206;16.394;2022-10-26T04:53:39;5.37;;;4.97;;
5945;SDS011;2998;48.206;16.394;2022-10-26T04:56:07;6.67;;;5.87;;
5945;SDS011;2998;48.206;16.394;2022-10-26T04:58:35;5.90;;;5.33;;
5945;SDS011;2998;48.206;16.394;2022-10-26T05:01:03;4.97;;;4.57;;
5945;SDS011;2998;48.206;16.394;2022-10-26T05:03:31;5.97;;;5.47;;
5945;SDS011;2998;48.206;16.394;2022-10-26T05:05:59;6.60;;;5.90;;
5945;SDS011;2998;48.206;16.394;2022-10-26T05:08:28;5.30;;;4.90;;
5945;SDS011;2998;48.206;16.394;2022-10-26T05:10:56;4.90;;;4.37;;
5945;SDS011;2998;48.206;16.394;2022-10-26T05:13:24;6.60;;;5.27;;
5945;SDS011;2998;48.206;16.394;2022-10-26T05:15:57;5.13;;;4.70;;
5945;SDS011;2998;48.206;16.394;2022-10-26T05:18:25;15.20;;;8.50;;
5945;SDS011;2998;48.206;16.394;2022-10-26T05:20:53;11.30;;;7.00;;
5945;SDS011;2998;48.206;16.394;2022-10-26T05:23:21;8.83;;;6.50;;
5945;SDS011;2998;48.206;16.394;2022-10-26T05:25:50;6.20;;;5.70;;
5945;SDS011;2998;48.206;16.394;2022-10-26T05:28:18;6.10;;;5.60;;
5945;SDS011;2998;48.206;16.394;2022-10-26T05:30:46;6.23;;;5.73;;
5945;SDS011;2998;48.206;16.394;2022-10-26T05:33:14;8.57;;;5.97;;
5945;SDS011;2998;48.206;16.394;2022-10-26T05:35:42;5.70;;;5.23;;
5945;SDS011;2998;48.206;16.394;2022-10-26T05:38:11;5.80;;;5.37;;
5945;SDS011;2998;48.206;16.394;2022-10-26T05:40:48;7.10;;;6.40;;
5945;SDS011;2998;48.206;16.394;2022-10-26T05:43:18;4.60;;;3.87;;
5945;SDS011;2998;48.206;16.394;2022-10-26T05:45:48;6.53;;;4.10;;
5945;SDS011;2998;48.206;16.394;2022-10-26T05:48:16;5.30;;;4.90;;
5945;SDS011;2998;48.206;16.394;2022-10-26T05:50:44;4.10;;;3.80;;
5945;SDS011;2998;48.206;16.394;2022-10-26T05:53:12;6.10;;;4.60;;
5945;SDS011;2998;48.206;16.394;2022-10-26T05:55:40;5.87;;;4.00;;
5945;SDS011;2998;48.206;16.394;2022-10-26T05:58:09;5.20;;;4.70;;
5945;SDS011;2998;48.206;16.394;2022-10-26T06:00:41;12.23;;;7.13;;
5945;SDS011;2998;48.206;16.394;2022-10-26T06:03:17;3.97;;;3.67;;
5945;SDS011;2998;48.206;16.394;2022-10-26T06:05:54;4.53;;;4.27;;
5945;SDS011;2998;48.206;16.394;2022-10-26T06:08:24;5.73;;;5.43;;
5945;SDS011;2998;48.206;16.394;2022-10-26T06:10:53;7.07;;;6.40;;
5945;SDS011;2998;48.206;16.394;2022-10-26T06:13:22;11.97;;;8.27;;
5945;SDS011;2998;48.206;16.394;2022-10-26T06:15:55;21.03;;;8.57;;
5945;SDS011;2998;48.206;16.394;2022-10-26T06:18:32;11.90;;;9.50;;
5945;SDS011;2998;48.206;16.394;2022-10-26T06:21:09;11.60;;;10.50;;
5945;SDS011;2998;48.206;16.394;2022-10-26T06:23:47;9.10;;;8.27;;
5945;SDS011;2998;48.206;16.394;2022-10-26T06:26:20;23.97;;;7.50;;
5945;SDS011;2998;48.206;16.394;2022-10-26T06:28:56;11.93;;;7.27;;
5945;SDS011;2998;48.206;16.394;2022-10-26T06:31:31;7.77;;;6.93;;
5945;SDS011;2998;48.206;16.394;2022-10-26T06:33:59;6.90;;;6.30;;
5945;SDS011;2998;48.206;16.394;2022-10-26T06:36:28;9.00;;;5.63;;
5945;SDS011;2998;48.206;16.394;2022-10-26T06:38:58;7.23;;;6.63;;
5945;SDS011;2998;48.206;16.394;2022-10-26T06:41:29;8.97;;;6.00;;
5945;SDS011;2998;48.206;16.394;2022-10-26T06:43:59;11.50;;;8.47;;
5945;SDS011;2998;48.206;16.394;2022-10-26T06:46:34;26.80;;;16.80;;
5945;SDS011;2998;48.206;16.394;2022-10-26T06:49:09;17.00;;;14.47;;
5945;SDS011;2998;48.206;16.394;2022-10-26T06:51:42;10.17;;;8.57;;
5945;SDS011;2998;48.206;16.394;2022-10-26T06:54:15;8.37;;;7.40;;
5945;SDS011;2998;48.206;16.394;2022-10-26T06:56:45;10.10;;;6.90;;
5945;SDS011;2998;48.206;16.394;2022-10-26T06:59:14;7.60;;;5.50;;
5945;SDS011;2998;48.206;16.394;2022-10-26T07:01:46;4.70;;;4.30;;
5945;SDS011;2998;48.206;16.394;2022-10-26T07:04:14;5.50;;;5.00;;
5945;SDS011;2998;48.206;16.394;2022-10-26T07:06:42;4.67;;;4.27;;
5945;SDS011;2998;48.206;16.394;2022-10-26T07:09:10;8.53;;;4.03;;
5945;SDS011;2998;48.206;16.394;2022-10-26T07:11:38;4.60;;;4.20;;
5945;SDS011;2998;48.206;16.394;2022-10-26T07:14:06;5.40;;;4.70;;
5945;SDS011;2998;48.206;16.394;2022-10-26T07:16:34;4.40;;;4.10;;
5945;SDS011;2998;48.206;16.394;2022-10-26T07:19:04;3.90;;;3.70;;
5945;SDS011;2998;48.206;16.394;2022-10-26T07:21:32;4.60;;;4.20;;
5945;SDS011;2998;48.206;16.394;2022-10-26T07:24:00;5.63;;;5.13;;
5945;SDS011;2998;48.206;16.394;2022-10-26T07:26:27;4.63;;;4.23;;
5945;SDS011;2998;48.206;16.394;2022-10-26T07:28:55;4.20;;;3.90;;
5945;SDS011;2998;48.206;16.394;2022-10-26T07:31:23;6.43;;;5.70;;
5945;SDS011;2998;48.206;16.394;2022-10-26T07:33:52;7.47;;;5.07;;
5945;SDS011;2998;48.206;16.394;2022-10-26T07:36:21;9.90;;;4.83;;
5945;SDS011;2998;48.206;16.394;2022-10-26T07:38:50;8.17;;;7.23;;
5945;SDS011;2998;48.206;16.394;2022-10-26T07:41:18;6.60;;;5.50;;
5945;SDS011;2998;48.206;16.394;2022-10-26T07:43:46;6.07;;;5.47;;
5945;SDS011;2998;48.206;16.394;2022-10-26T07:46:16;6.83;;;6.23;;
5945;SDS011;2998;48.206;16.394;2022-10-26T07:48:44;6.53;;;5.93;;
5945;SDS011;2998;48.206;16.394;2022-10-26T07:51:12;12.60;;;9.53;;
5945;SDS011;2998;48.206;16.394;2022-10-26T07:53:41;13.03;;;7.90;;
5945;SDS011;2998;48.206;16.394;2022-10-26T07:56:09;4.90;;;4.60;;
5945;SDS011;2998;48.206;16.394;2022-10-26T07:58:37;6.43;;;3.90;;
5945;SDS011;2998;48.206;16.394;2022-10-26T08:01:06;4.00;;;3.70;;
5945;SDS011;2998;48.206;16.394;2022-10-26T08:03:35;4.38;;;3.97;;
5945;SDS011;2998;48.206;16.394;2022-10-26T08:06:03;4.53;;;4.13;;
5945;SDS011;2998;48.206;16.394;2022-10-26T08:08:32;5.90;;;5.40;;
5945;SDS011;2998;48.206;16.394;2022-10-26T08:11:02;7.60;;;6.17;;
5945;SDS011;2998;48.206;16.394;2022-10-26T08:13:31;9.87;;;8.73;;
5945;SDS011;2998;48.206;16.394;2022-10-26T08:16:02;12.93;;;11.67;;
5945;SDS011;2998;48.206;16.394;2022-10-26T08:18:31;10.73;;;9.63;;
5945;SDS011;2998;48.206;16.394;2022-10-26T08:21:00;7.47;;;6.83;;
5945;SDS011;2998;48.206;16.394;2022-10-26T08:23:37;7.67;;;5.37;;
5945;SDS011;2998;48.206;16.394;2022-10-26T08:26:06;18.83;;;10.80;;
5945;SDS011;2998;48.206;16.394;2022-10-26T08:28:36;10.70;;;7.93;;
5945;SDS011;2998;48.206;16.394;2022-10-26T08:31:05;5.37;;;3.70;;
5945;SDS011;2998;48.206;16.394;2022-10-26T08:33:33;4.90;;;4.50;;
5945;SDS011;2998;48.206;16.394;2022-10-26T08:36:02;13.07;;;7.37;;
5945;SDS011;2998;48.206;16.394;2022-10-26T08:38:31;11.07;;;5.93;;
5945;SDS011;2998;48.206;16.394;2022-10-26T08:41:04;6.03;;;5.53;;
5945;SDS011;2998;48.206;16.394;2022-10-26T08:43:36;8.30;;;7.03;;
5945;SDS011;2998;48.206;16.394;2022-10-26T08:46:07;9.20;;;8.30;;
5945;SDS011;2998;48.206;16.394;2022-10-26T08:48:39;8.20;;;7.50;;
5945;SDS011;2998;48.206;16.394;2022-10-26T08:51:09;8.47;;;5.27;;
5945;SDS011;2998;48.206;16.394;2022-10-26T08:53:40;5.27;;;4.87;;
5945;SDS011;2998;48.206;16.394;2022-10-26T08:56:12;5.33;;;4.20;;
5945;SDS011;2998;48.206;16.394;2022-10-26T08:58:45;5.23;;;4.50;;
5945;SDS011;2998;48.206;16.394;2022-10-26T09:01:15;11.37;;;5.60;;
5945;SDS011;2998;48.206;16.394;2022-10-26T09:03:44;7.63;;;5.50;;
5945;SDS011;2998;48.206;16.394;2022-10-26T09:06:15;5.50;;;4.60;;
5945;SDS011;2998;48.206;16.394;2022-10-26T09:08:49;9.50;;;5.83;;
5945;SDS011;2998;48.206;16.394;2022-10-26T09:11:29;7.00;;;5.70;;
5945;SDS011;2998;48.206;16.394;2022-10-26T09:14:07;4.43;;;4.03;;
5945;SDS011;2998;48.206;16.394;2022-10-26T09:16:40;3.53;;;3.23;;
5945;SDS011;2998;48.206;16.394;2022-10-26T09:19:21;2.83;;;2.63;;
5945;SDS011;2998;48.206;16.394;2022-10-26T09:21:59;3.57;;;2.67;;
5945;SDS011;2998;48.206;16.394;2022-10-26T09:24:33;6.80;;;3.57;;
5945;SDS011;2998;48.206;16.394;2022-10-26T09:27:08;4.13;;;2.03;;
5945;SDS011;2998;48.206;16.394;2022-10-26T09:29:39;2.30;;;2.10;;
5945;SDS011;2998;48.206;16.394;2022-10-26T09:32:10;4.60;;;2.57;;
5945;SDS011;2998;48.206;16.394;2022-10-26T09:34:42;4.33;;;3.13;;
5945;SDS011;2998;48.206;16.394;2022-10-26T09:37:14;3.23;;;2.93;;
5945;SDS011;2998;48.206;16.394;2022-10-26T09:39:46;3.53;;;3.20;;
5945;SDS011;2998;48.206;16.394;2022-10-26T09:42:21;23.37;;;8.87;;
5945;SDS011;2998;48.206;16.394;2022-10-26T09:44:53;2.20;;;2.10;;
5945;SDS011;2998;48.206;16.394;2022-10-26T09:47:27;1.90;;;1.67;;
5945;SDS011;2998;48.206;16.394;2022-10-26T09:49:57;3.43;;;1.93;;
5945;SDS011;2998;48.206;16.394;2022-10-26T09:52:28;9.47;;;1.97;;
5945;SDS011;2998;48.206;16.394;2022-10-26T09:54:56;3.07;;;2.10;;
5945;SDS011;2998;48.206;16.394;2022-10-26T09:57:26;2.73;;;2.37;;
5945;SDS011;2998;48.206;16.394;2022-10-26T09:59:54;2.20;;;2.10;;
5945;SDS011;2998;48.206;16.394;2022-10-26T10:02:32;4.10;;;2.70;;
5945;SDS011;2998;48.206;16.394;2022-10-26T10:05:01;3.33;;;3.13;;
5945;SDS011;2998;48.206;16.394;2022-10-26T10:07:30;6.10;;;2.70;;
5945;SDS011;2998;48.206;16.394;2022-10-26T10:10:05;5.63;;;3.30;;
5945;SDS011;2998;48.206;16.394;2022-10-26T10:12:36;5.00;;;3.00;;
5945;SDS011;2998;48.206;16.394;2022-10-26T10:15:04;3.93;;;3.40;;
5945;SDS011;2998;48.206;16.394;2022-10-26T10:17:40;3.60;;;3.30;;
5945;SDS011;2998;48.206;16.394;2022-10-26T10:20:18;5.40;;;4.17;;
5945;SDS011;2998;48.206;16.394;2022-10-26T10:22:55;3.60;;;3.30;;
5945;SDS011;2998;48.206;16.394;2022-10-26T10:25:31;3.43;;;3.13;;
5945;SDS011;2998;48.206;16.394;2022-10-26T10:28:01;3.70;;;3.40;;
5945;SDS011;2998;48.206;16.394;2022-10-26T10:30:31;6.03;;;3.70;;
5945;SDS011;2998;48.206;16.394;2022-10-26T10:33:03;3.80;;;3.50;;
5945;SDS011;2998;48.206;16.394;2022-10-26T10:35:32;5.73;;;3.53;;
5945;SDS011;2998;48.206;16.394;2022-10-26T10:38:00;6.07;;;3.10;;
5945;SDS011;2998;48.206;16.394;2022-10-26T10:40:29;3.50;;;3.20;;
5945;SDS011;2998;48.206;16.394;2022-10-26T10:43:03;4.23;;;3.83;;
5945;SDS011;2998;48.206;16.394;2022-10-26T10:45:32;7.03;;;4.20;;
5945;SDS011;2998;48.206;16.394;2022-10-26T10:48:02;7.30;;;4.10;;
5945;SDS011;2998;48.206;16.394;2022-10-26T10:50:31;6.10;;;3.50;;
5945;SDS011;2998;48.206;16.394;2022-10-26T10:53:14;4.47;;;3.70;;
5945;SDS011;2998;48.206;16.394;2022-10-26T10:55:47;4.27;;;3.90;;
5945;SDS011;2998;48.206;16.394;2022-10-26T10:58:22;4.37;;;4.07;;
5945;SDS011;2998;48.206;16.394;2022-10-26T11:00:54;3.67;;;3.00;;
5945;SDS011;2998;48.206;16.394;2022-10-26T11:06:22;3.93;;;3.67;;
5945;SDS011;2998;48.206;16.394;2022-10-26T11:08:52;25.23;;;12.43;;
5945;SDS011;2998;48.206;16.394;2022-10-26T11:11:24;4.70;;;3.30;;
5945;SDS011;2998;48.206;16.394;2022-10-26T11:13:55;4.93;;;4.20;;
5945;SDS011;2998;48.206;16.394;2022-10-26T11:16:27;6.23;;;3.57;;
5945;SDS011;2998;48.206;16.394;2022-10-26T11:18:58;4.30;;;4.00;;
5945;SDS011;2998;48.206;16.394;2022-10-26T11:21:28;4.60;;;4.20;;
5945;SDS011;2998;48.206;16.394;2022-10-26T11:24:00;5.63;;;3.90;;
5945;SDS011;2998;48.206;16.394;2022-10-26T11:26:38;4.40;;;4.00;;
5945;SDS011;2998;48.206;16.394;2022-10-26T11:29:17;4.03;;;3.73;;
5945;SDS011;2998;48.206;16.394;2022-10-26T11:31:50;3.40;;;3.10;;
5945;SDS011;2998;48.206;16.394;2022-10-26T11:34:22;4.23;;;3.77;;
5945;SDS011;2998;48.206;16.394;2022-10-26T11:36:55;3.90;;;3.70;;
5945;SDS011;2998;48.206;16.394;2022-10-26T11:39:27;4.27;;;3.60;;
5945;SDS011;2998;48.206;16.394;2022-10-26T11:42:02;5.33;;;4.17;;
5945;SDS011;2998;48.206;16.394;2022-10-26T11:44:38;5.20;;;4.50;;
5945;SDS011;2998;48.206;16.394;2022-10-26T11:47:10;4.80;;;4.30;;
5945;SDS011;2998;48.206;16.394;2022-10-26T11:49:41;4.60;;;4.30;;
5945;SDS011;2998;48.206;16.394;2022-10-26T11:52:12;7.07;;;4.40;;
5945;SDS011;2998;48.206;16.394;2022-10-26T11:54:44;8.00;;;3.60;;
5945;SDS011;2998;48.206;16.394;2022-10-26T11:57:17;4.70;;;4.20;;
5945;SDS011;2998;48.206;16.394;2022-10-26T11:59:48;4.40;;;4.00;;
5945;SDS011;2998;48.206;16.394;2022-10-26T12:02:18;14.00;;;4.40;;
5945;SDS011;2998;48.206;16.394;2022-10-26T12:04:49;5.53;;;3.93;;
5945;SDS011;2998;48.206;16.394;2022-10-26T12:07:21;7.33;;;4.47;;
5945;SDS011;2998;48.206;16.394;2022-10-26T12:09:52;6.33;;;3.40;;
5945;SDS011;2998;48.206;16.394;2022-10-26T12:12:22;5.87;;;3.97;;
5945;SDS011;2998;48.206;16.394;2022-10-26T12:15:08;4.93;;;3.77;;
5945;SDS011;2998;48.206;16.394;2022-10-26T12:17:45;4.83;;;3.83;;
5945;SDS011;2998;48.206;16.394;2022-10-26T12:20:28;4.37;;;4.07;;
5945;SDS011;2998;48.206;16.394;2022-10-26T12:23:20;4.63;;;4.03;;
5945;SDS011;2998;48.206;16.394;2022-10-26T12:29:24;6.07;;;3.93;;
5945;SDS011;2998;48.206;16.394;2022-10-26T12:31:56;5.97;;;4.10;;
5945;SDS011;2998;48.206;16.394;2022-10-26T12:34:55;4.43;;;4.03;;
5945;SDS011;2998;48.206;16.394;2022-10-26T12:37:30;4.03;;;3.83;;
5945;SDS011;2998;48.206;16.394;2022-10-26T13:01:34;7.07;;;3.50;;
5945;SDS011;2998;48.206;16.394;2022-10-26T13:04:19;4.87;;;3.80;;
5945;SDS011;2998;48.206;16.394;2022-10-26T13:06:59;4.20;;;3.40;;
5945;SDS011;2998;48.206;16.394;2022-10-26T13:09:41;4.37;;;3.97;;
5945;SDS011;2998;48.206;16.394;2022-10-26T13:12:11;3.60;;;3.13;;
5945;SDS011;2998;48.206;16.394;2022-10-26T13:14:40;7.97;;;4.20;;
5945;SDS011;2998;48.206;16.394;2022-10-26T13:17:21;7.90;;;3.93;;
5945;SDS011;2998;48.206;16.394;2022-10-26T13:19:54;3.90;;;2.90;;
5945;SDS011;2998;48.206;16.394;2022-10-26T13:22:22;4.80;;;3.50;;
5945;SDS011;2998;48.206;16.394;2022-10-26T13:24:52;3.33;;;3.13;;
5945;SDS011;2998;48.206;16.394;2022-10-26T13:27:38;3.93;;;3.63;;
5945;SDS011;2998;48.206;16.394;2022-10-26T13:30:18;3.50;;;3.20;;
5945;SDS011;2998;48.206;16.394;2022-10-26T13:33:02;4.47;;;3.10;;
5945;SDS011;2998;48.206;16.394;2022-10-26T13:35:34;3.60;;;3.00;;
5945;SDS011;2998;48.206;16.394;2022-10-26T13:38:07;3.70;;;3.50;;
5945;SDS011;2998;48.206;16.394;2022-10-26T13:40:38;4.33;;;3.60;;
5945;SDS011;2998;48.206;16.394;2022-10-26T13:43:10;5.33;;;4.87;;
5945;SDS011;2998;48.206;16.394;2022-10-26T13:45:46;5.90;;;5.30;;
5945;SDS011;2998;48.206;16.394;2022-10-26T13:48:17;7.30;;;6.70;;
5945;SDS011;2998;48.206;16.394;2022-10-26T13:50:47;10.43;;;8.40;;
5945;SDS011;2998;48.206;16.394;2022-10-26T13:53:18;6.53;;;5.97;;
5945;SDS011;2998;48.206;16.394;2022-10-26T13:55:51;6.30;;;5.00;;
5945;SDS011;2998;48.206;16.394;2022-10-26T13:58:21;7.93;;;6.00;;
5945;SDS011;2998;48.206;16.394;2022-10-26T14:01:02;6.10;;;5.57;;
5945;SDS011;2998;48.206;16.394;2022-10-26T14:03:38;5.07;;;4.70;;
5945;SDS011;2998;48.206;16.394;2022-10-26T14:06:09;9.40;;;5.30;;
5945;SDS011;2998;48.206;16.394;2022-10-26T14:08:40;6.70;;;4.83;;
5945;SDS011;2998;48.206;16.394;2022-10-26T14:11:11;5.10;;;4.60;;
5945;SDS011;2998;48.206;16.394;2022-10-26T14:13:40;5.07;;;4.73;;
5945;SDS011;2998;48.206;16.394;2022-10-26T14:16:09;5.27;;;4.47;;
5945;SDS011;2998;48.206;16.394;2022-10-26T14:18:43;5.30;;;4.43;;
5945;SDS011;2998;48.206;16.394;2022-10-26T14:21:12;6.47;;;4.50;;
5945;SDS011;2998;48.206;16.394;2022-10-26T14:23:45;4.80;;;4.50;;
5945;SDS011;2998;48.206;16.394;2022-10-26T14:26:20;6.70;;;4.63;;
5945;SDS011;2998;48.206;16.394;2022-10-26T14:28:50;5.33;;;4.83;;
5945;SDS011;2998;48.206;16.394;2022-10-26T14:31:23;5.53;;;4.93;;
5945;SDS011;2998;48.206;16.394;2022-10-26T14:33:52;9.23;;;4.20;;
5945;SDS011;2998;48.206;16.394;2022-10-26T14:36:22;5.50;;;5.00;;
5945;SDS011;2998;48.206;16.394;2022-10-26T14:38:54;8.90;;;6.67;;
5945;SDS011;2998;48.206;16.394;2022-10-26T14:41:26;8.10;;;7.10;;
5945;SDS011;2998;48.206;16.394;2022-10-26T14:43:56;9.37;;;5.80;;
5945;SDS011;2998;48.206;16.394;2022-10-26T14:46:25;12.83;;;4.87;;
5945;SDS011;2998;48.206;16.394;2022-10-26T14:48:56;7.87;;;5.77;;
5945;SDS011;2998;48.206;16.394;2022-10-26T14:51:26;5.37;;;4.97;;
5945;SDS011;2998;48.206;16.394;2022-10-26T14:53:55;7.43;;;6.77;;
5945;SDS011;2998;48.206;16.394;2022-10-26T14:56:25;19.00;;;16.37;;
5945;SDS011;2998;48.206;16.394;2022-10-26T14:58:57;119.67;;;72.17;;
5945;SDS011;2998;48.206;16.394;2022-10-26T15:01:26;27.57;;;19.13;;
5945;SDS011;2998;48.206;16.394;2022-10-26T15:04:01;56.80;;;37.57;;
5945;SDS011;2998;48.206;16.394;2022-10-26T15:06:31;39.30;;;27.27;;
5945;SDS011;2998;48.206;16.394;2022-10-26T15:12:00;10.67;;;8.60;;
5945;SDS011;2998;48.206;16.394;2022-10-26T15:14:30;14.13;;;6.97;;
5945;SDS011;2998;48.206;16.394;2022-10-26T15:16:58;11.30;;;6.77;;
5945;SDS011;2998;48.206;16.394;2022-10-26T15:19:26;8.27;;;6.80;;
5945;SDS011;2998;48.206;16.394;2022-10-26T15:21:55;7.23;;;6.27;;
5945;SDS011;2998;48.206;16.394;2022-10-26T15:24:27;9.63;;;5.70;;
5945;SDS011;2998;48.206;16.394;2022-10-26T15:27:10;9.17;;;6.40;;
5945;SDS011;2998;48.206;16.394;2022-10-26T15:29:40;14.13;;;6.37;;
5945;SDS011;2998;48.206;16.394;2022-10-26T15:32:19;14.77;;;11.10;;
5945;SDS011;2998;48.206;16.394;2022-10-26T15:35:12;12.43;;;11.13;;
5945;SDS011;2998;48.206;16.394;2022-10-26T15:37:51;13.23;;;11.40;;
5945;SDS011;2998;48.206;16.394;2022-10-26T15:40:20;16.43;;;12.87;;
5945;SDS011;2998;48.206;16.394;2022-10-26T15:42:50;13.23;;;11.87;;
5945;SDS011;2998;48.206;16.394;2022-10-26T15:45:19;11.20;;;10.00;;
5945;SDS011;2998;48.206;16.394;2022-10-26T15:47:49;55.53;;;36.27;;
5945;SDS011;2998;48.206;16.394;2022-10-26T15:50:19;44.00;;;29.77;;
5945;SDS011;2998;48.206;16.394;2022-10-26T15:52:48;39.47;;;25.80;;
5945;SDS011;2998;48.206;16.394;2022-10-26T15:55:16;60.53;;;39.37;;
5945;SDS011;2998;48.206;16.394;2022-10-26T15:57:44;58.80;;;35.70;;
5945;SDS011;2998;48.206;16.394;2022-10-26T16:00:15;42.33;;;26.73;;
5945;SDS011;2998;48.206;16.394;2022-10-26T16:02:44;18.53;;;13.87;;
5945;SDS011;2998;48.206;16.394;2022-10-26T16:05:13;14.23;;;9.23;;